Archival Weather

Tokyo Intl

Tokyo Intl, Japan (RJTT)

Report from: Friday, June 24, 2022 4:30 AM JST
Current time: Tuesday, August 16, 2022 9:14 AM JST

Current weather
Weather history
Weather forecast

Temperature23.0°C (73.4°F)
Dew point23.0°C (73.4°F)
Winds 10 kts (5.1 m/s, 11.5 mph) South (180°)
Visibility6.2 mi. (10 km)
Clouds Few clouds 400 ft. (122 m)
Ceiling: Broken clouds 600 ft. (183 m)
Broken clouds 1,100 ft. (335 m)
Altimeter29.77 in.Hg (1008 mB)
Relative humidity100 %
Density altitude1,485 ft. (453 m)
Remarks No significant changes expected in the next two hours
Flight conditions Instrument Meteorological Conditions
Raw dataRJTT 231930Z 18010KT 9999 FEW004 BKN006 BKN011 23/23 Q1008 NOSIG RMK 1ST004 6ST006 7ST011 A2978
An error has occurred. This application may no longer respond until reloaded. Reload 🗙